FKKD

Douala International Airport

Douala, Cameroon
METAR FKKD 231400Z VRB05KT 9999 BKN014 FEW017CB 33/25 Q1010 NOSIG
Observed Flight Rules
May-23 @ 14:00 UTC (an hour ago) Marginal Visual Flight Rules
Wind Visibility Clouds
Variable at 5 knots 10,000+ meters
  • Broken at 1,400' AGL
  • Few at 1,700' AGL
Temperatures Readings
Current 33°C / 91°F
Dewpoint 25°C / 77°F
Humidity 63%
Altimeter 29.82" Hg
Pressure 1010 hPa
Elevation 9
METAR FKKD 231400Z VRB05KT 9999 BKN014 FEW017CB 33/25 Q1010 NOSIG
Observed Flight Rules
May-23 @ 14:00 UTC
(an hour ago)
MVFR
Wind Visibility
Variable at 5 knots 10,000+ meters
Clouds
  • Broken at 1,400' AGL
  • Few at 1,700' AGL
Temperature Dewpoint
33°C / 91°F 25°C / 77°F
Humidity Altimeter Pressure
63% 29.82" Hg 1010 hPa